Time;durP1;ratioP1;P1;durP2;ratioP2;P2;SDS_P1;SDS_P2;PMS_P1;PMS_P2;Temp;Humidity;BMP_temperature;BMP_pressure;BME280_temperature;BME280_humidity;BME280_pressure;Samples;Min_cycle;Max_cycle;Signal;HPM_P1;HPM_P2
2022/10/31 00:00:41;;;;;;;5.77;3.90;;;;;;;;;;5068664;28;20434;-69
2022/10/31 00:03:07;;;;;;;5.50;4.37;;;;;;;;;;5067301;28;20544;-69
2022/10/31 00:05:32;;;;;;;12.60;5.57;;;;;;;;;;5067210;28;20533;-70
2022/10/31 00:07:58;;;;;;;7.20;4.50;;;;;;;;;;5062794;28;20484;-69
2022/10/31 00:10:24;;;;;;;5.90;4.70;;;;;;;;;;5068752;28;20433;-69
2022/10/31 00:12:51;;;;;;;3.90;3.63;;;;;;;;;;5069457;28;20434;-69
2022/10/31 00:15:17;;;;;;;4.43;3.30;;;;;;;;;;5051982;28;20440;-69
2022/10/31 00:17:43;;;;;;;6.97;3.23;;;;;;;;;;5069406;28;20437;-69
2022/10/31 00:20:09;;;;;;;5.90;4.27;;;;;;;;;;5069413;28;20436;-69
2022/10/31 00:22:35;;;;;;;8.30;3.40;;;;;;;;;;5068106;28;20473;-68
2022/10/31 00:25:01;;;;;;;3.13;3.00;;;;;;;;;;5068330;28;20468;-69
2022/10/31 00:27:27;;;;;;;6.57;3.60;;;;;;;;;;5050646;28;20488;-69
2022/10/31 00:29:55;;;;;;;4.17;3.03;;;;;;;;;;5068334;28;20425;-69
2022/10/31 00:32:21;;;;;;;5.17;2.93;;;;;;;;;;5068187;28;20456;-69
2022/10/31 00:34:47;;;;;;;5.30;3.40;;;;;;;;;;5067761;28;20938;-69
2022/10/31 00:37:13;;;;;;;4.93;3.97;;;;;;;;;;5067316;28;20444;-70
2022/10/31 00:39:38;;;;;;;6.20;3.40;;;;;;;;;;5048192;28;20460;-69
2022/10/31 00:42:04;;;;;;;7.23;3.23;;;;;;;;;;5067410;28;20979;-69
2022/10/31 00:44:30;;;;;;;4.73;3.10;;;;;;;;;;5067963;28;20798;-69
2022/10/31 00:46:56;;;;;;;3.50;3.17;;;;;;;;;;5068892;28;20465;-68
2022/10/31 00:49:22;;;;;;;4.50;2.90;;;;;;;;;;5066398;28;20444;-69
2022/10/31 00:51:48;;;;;;;7.33;3.03;;;;;;;;;;5068259;28;20441;-69
2022/10/31 00:54:14;;;;;;;4.03;3.77;;;;;;;;;;5068635;28;20433;-69
2022/10/31 00:56:40;;;;;;;16.40;3.60;;;;;;;;;;5065182;28;20511;-69
2022/10/31 00:59:06;;;;;;;7.60;3.30;;;;;;;;;;5066429;28;20445;-69
2022/10/31 01:01:32;;;;;;;6.93;3.03;;;;;;;;;;5066599;28;20941;-68
2022/10/31 01:03:58;;;;;;;9.33;3.10;;;;;;;;;;5068987;28;20465;-68
2022/10/31 01:06:24;;;;;;;3.33;3.13;;;;;;;;;;5068150;28;20433;-69
2022/10/31 01:08:50;;;;;;;3.00;2.90;;;;;;;;;;5066002;28;20445;-69
2022/10/31 01:11:17;;;;;;;7.23;3.20;;;;;;;;;;5067157;28;20448;-69
2022/10/31 01:13:44;;;;;;;13.70;2.13;;;;;;;;;;5067698;28;20437;-69
2022/10/31 01:16:11;;;;;;;7.40;2.53;;;;;;;;;;5068427;28;20421;-69
2022/10/31 01:18:37;;;;;;;9.23;3.10;;;;;;;;;;5068918;28;20524;-69
2022/10/31 01:21:05;;;;;;;2.33;2.23;;;;;;;;;;5065096;28;20525;-69
2022/10/31 01:23:31;;;;;;;5.17;3.00;;;;;;;;;;5068942;28;20779;-68
2022/10/31 01:26:05;;;;;;;3.20;2.97;;;;;;;;;;5067594;28;20463;-69
2022/10/31 01:28:31;;;;;;;5.60;2.67;;;;;;;;;;5065894;28;20571;-69
2022/10/31 01:31:00;;;;;;;7.83;2.20;;;;;;;;;;5068523;28;20527;-69
2022/10/31 01:33:26;;;;;;;3.07;2.87;;;;;;;;;;5069150;28;20421;-68
2022/10/31 01:35:52;;;;;;;4.53;2.83;;;;;;;;;;5067041;28;20436;-69
2022/10/31 01:38:18;;;;;;;2.63;2.30;;;;;;;;;;5068989;28;20426;-69
2022/10/31 01:40:44;;;;;;;8.93;2.43;;;;;;;;;;5068542;28;20413;-69
2022/10/31 01:43:13;;;;;;;2.87;2.67;;;;;;;;;;5068845;28;20452;-69
2022/10/31 01:45:39;;;;;;;2.43;2.33;;;;;;;;;;5068242;28;20785;-70
2022/10/31 01:48:05;;;;;;;3.33;2.53;;;;;;;;;;5068088;28;20480;-69
2022/10/31 01:50:34;;;;;;;6.93;2.37;;;;;;;;;;5072324;28;20433;-70
2022/10/31 01:53:01;;;;;;;2.73;2.50;;;;;;;;;;5071850;28;20983;-69
2022/10/31 01:55:26;;;;;;;2.40;2.20;;;;;;;;;;5071997;28;20422;-69
2022/10/31 01:57:54;;;;;;;3.40;2.70;;;;;;;;;;5072516;28;20785;-68
2022/10/31 02:00:21;;;;;;;7.00;2.17;;;;;;;;;;5071962;28;20409;-68
2022/10/31 02:02:48;;;;;;;2.03;1.97;;;;;;;;;;5072077;28;20628;-70
2022/10/31 02:05:17;;;;;;;2.07;1.90;;;;;;;;;;5070825;28;20446;-68
2022/10/31 02:07:43;;;;;;;4.57;3.17;;;;;;;;;;5072394;28;20489;-70
2022/10/31 02:10:09;;;;;;;4.90;2.27;;;;;;;;;;5071920;28;20796;-70
2022/10/31 02:12:38;;;;;;;3.40;1.93;;;;;;;;;;5071164;28;20437;-70
2022/10/31 02:15:04;;;;;;;7.87;2.30;;;;;;;;;;5072378;28;20429;-69
2022/10/31 02:17:31;;;;;;;5.80;1.73;;;;;;;;;;5072430;28;20437;-68
2022/10/31 02:19:57;;;;;;;2.93;2.10;;;;;;;;;;5071020;28;20421;-69
2022/10/31 02:22:27;;;;;;;6.00;2.20;;;;;;;;;;5069899;28;20494;-71
2022/10/31 02:24:53;;;;;;;6.63;2.33;;;;;;;;;;5070254;28;20433;-70
2022/10/31 02:27:28;;;;;;;8.93;2.63;;;;;;;;;;5071866;28;20475;-69
2022/10/31 02:29:54;;;;;;;4.83;2.80;;;;;;;;;;5071946;28;20429;-69
2022/10/31 02:32:25;;;;;;;2.27;2.17;;;;;;;;;;5067329;28;20483;-69
2022/10/31 02:35:10;;;;;;;4.03;2.67;;;;;;;;;;5071999;28;21238;-68
2022/10/31 02:37:46;;;;;;;5.50;2.43;;;;;;;;;;5072041;28;20905;-70
2022/10/31 02:40:18;;;;;;;6.37;2.73;;;;;;;;;;5071550;28;20445;-68
2022/10/31 02:42:50;;;;;;;4.57;3.23;;;;;;;;;;5070486;28;20437;-69
2022/10/31 02:45:31;;;;;;;5.53;2.57;;;;;;;;;;5069892;28;20960;-69
2022/10/31 02:48:00;;;;;;;5.70;4.73;;;;;;;;;;5070778;28;20488;-69
2022/10/31 02:50:30;;;;;;;7.50;2.50;;;;;;;;;;5053043;28;20836;-70
2022/10/31 02:52:56;;;;;;;5.43;2.83;;;;;;;;;;5070068;28;20933;-69
2022/10/31 02:55:25;;;;;;;2.67;2.40;;;;;;;;;;5071161;28;20424;-69
2022/10/31 02:57:53;;;;;;;7.87;2.20;;;;;;;;;;5052740;28;20517;-69
2022/10/31 03:00:19;;;;;;;8.53;2.87;;;;;;;;;;5068565;28;20520;-69
2022/10/31 03:03:00;;;;;;;2.73;2.53;;;;;;;;;;5069731;28;20576;-69
2022/10/31 03:05:26;;;;;;;2.97;2.07;;;;;;;;;;5070590;28;20436;-69
2022/10/31 03:07:55;;;;;;;4.57;2.20;;;;;;;;;;5070724;28;20481;-70
2022/10/31 03:10:28;;;;;;;3.13;1.90;;;;;;;;;;5070502;28;20426;-69
2022/10/31 03:13:07;;;;;;;9.17;3.10;;;;;;;;;;5070091;28;20449;-69
2022/10/31 03:15:34;;;;;;;4.70;3.80;;;;;;;;;;5071273;28;20897;-69
2022/10/31 03:18:03;;;;;;;4.50;2.57;;;;;;;;;;5053234;28;20429;-70
2022/10/31 03:21:02;;;;;;;3.87;2.50;;;;;;;;;;5070613;28;20448;-69
2022/10/31 03:23:29;;;;;;;2.87;2.67;;;;;;;;;;5034963;28;20442;-68
2022/10/31 03:25:55;;;;;;;2.57;1.90;;;;;;;;;;5069952;28;20533;-68
2022/10/31 03:28:25;;;;;;;2.50;2.27;;;;;;;;;;5052511;28;20481;-68
2022/10/31 03:30:53;;;;;;;6.40;2.20;;;;;;;;;;5069967;28;20767;-69
2022/10/31 03:33:22;;;;;;;6.27;2.10;;;;;;;;;;5070632;28;20980;-69
2022/10/31 03:35:50;;;;;;;4.73;2.17;;;;;;;;;;5070807;28;20484;-68
2022/10/31 03:38:16;;;;;;;2.53;2.30;;;;;;;;;;5069864;28;20437;-69
2022/10/31 03:40:44;;;;;;;2.27;1.90;;;;;;;;;;5067311;28;20435;-69
2022/10/31 03:43:14;;;;;;;2.40;1.93;;;;;;;;;;5070215;28;20481;-69
2022/10/31 03:45:42;;;;;;;3.13;2.60;;;;;;;;;;5069820;28;20969;-69
2022/10/31 03:48:08;;;;;;;1.40;1.40;;;;;;;;;;5070395;28;20477;-69
2022/10/31 03:50:46;;;;;;;4.70;1.80;;;;;;;;;;5069722;28;20484;-69
2022/10/31 03:53:15;;;;;;;1.60;1.40;;;;;;;;;;5070007;28;20409;-71
2022/10/31 03:55:50;;;;;;;2.10;1.70;;;;;;;;;;5068379;28;20445;-70
2022/10/31 03:58:21;;;;;;;1.53;1.43;;;;;;;;;;5070280;28;20409;-69
2022/10/31 04:00:48;;;;;;;2.53;2.47;;;;;;;;;;5069937;28;20513;-69
2022/10/31 04:03:16;;;;;;;6.43;3.83;;;;;;;;;;5069719;28;20561;-68
2022/10/31 04:05:44;;;;;;;3.10;2.73;;;;;;;;;;5069213;28;20446;-70
2022/10/31 04:08:12;;;;;;;8.13;2.93;;;;;;;;;;5068259;28;21027;-69
2022/10/31 04:10:38;;;;;;;5.20;1.80;;;;;;;;;;5067608;28;20978;-69
2022/10/31 04:13:09;;;;;;;2.20;2.10;;;;;;;;;;5069288;28;20794;-71
2022/10/31 04:15:36;;;;;;;2.40;1.90;;;;;;;;;;5066066;28;20468;-69
2022/10/31 04:18:04;;;;;;;2.97;2.40;;;;;;;;;;5069280;28;20913;-70
2022/10/31 04:20:31;;;;;;;4.73;1.80;;;;;;;;;;5069210;28;20422;-69
2022/10/31 04:22:57;;;;;;;4.37;2.17;;;;;;;;;;5069174;28;20445;-69
2022/10/31 04:25:23;;;;;;;3.07;2.07;;;;;;;;;;5069276;28;20425;-69
2022/10/31 04:27:49;;;;;;;3.33;3.07;;;;;;;;;;5069655;28;20468;-69
2022/10/31 04:30:15;;;;;;;2.07;1.97;;;;;;;;;;5068779;28;20441;-68
2022/10/31 04:32:41;;;;;;;5.03;3.20;;;;;;;;;;5068891;28;20590;-71
2022/10/31 04:35:07;;;;;;;3.63;2.27;;;;;;;;;;5067575;28;20934;-70
2022/10/31 04:37:33;;;;;;;3.90;2.00;;;;;;;;;;5069151;28;20445;-69
2022/10/31 04:39:59;;;;;;;2.43;2.23;;;;;;;;;;5069223;28;20515;-70
2022/10/31 04:42:25;;;;;;;3.27;2.33;;;;;;;;;;5068834;28;20417;-69
2022/10/31 04:44:51;;;;;;;6.13;2.40;;;;;;;;;;5049458;28;20520;-69
2022/10/31 04:47:17;;;;;;;3.07;2.50;;;;;;;;;;5068400;28;20483;-69
2022/10/31 04:49:43;;;;;;;2.00;1.90;;;;;;;;;;5069548;28;20516;-69
2022/10/31 04:52:09;;;;;;;2.77;2.57;;;;;;;;;;5069247;28;20434;-69
2022/10/31 04:54:35;;;;;;;6.00;2.50;;;;;;;;;;5056489;28;20444;-70
2022/10/31 04:57:01;;;;;;;3.97;2.33;;;;;;;;;;5065184;28;20516;-69
2022/10/31 04:59:27;;;;;;;2.10;2.00;;;;;;;;;;5065722;28;22285;-68
2022/10/31 05:01:53;;;;;;;2.83;2.17;;;;;;;;;;5066882;28;20432;-69
2022/10/31 05:04:19;;;;;;;2.60;2.50;;;;;;;;;;5068016;28;20473;-68
2022/10/31 05:06:44;;;;;;;2.13;1.80;;;;;;;;;;5066192;28;20440;-69
2022/10/31 05:09:10;;;;;;;6.60;2.57;;;;;;;;;;5067561;28;20449;-71
2022/10/31 05:11:36;;;;;;;7.57;2.57;;;;;;;;;;5064955;28;20913;-69
2022/10/31 05:14:02;;;;;;;3.23;2.37;;;;;;;;;;5068427;28;20836;-71
2022/10/31 05:16:29;;;;;;;14.53;1.70;;;;;;;;;;5066244;28;20437;-71
2022/10/31 05:18:55;;;;;;;3.13;2.70;;;;;;;;;;5068189;28;20430;-68
2022/10/31 05:21:21;;;;;;;6.70;2.60;;;;;;;;;;5068119;28;20437;-70
2022/10/31 05:23:47;;;;;;;4.00;1.87;;;;;;;;;;5069248;28;20425;-69
2022/10/31 05:26:12;;;;;;;4.77;2.10;;;;;;;;;;5069853;28;20980;-69
2022/10/31 05:28:38;;;;;;;5.00;2.13;;;;;;;;;;5072520;28;20878;-69
2022/10/31 05:31:04;;;;;;;3.70;2.20;;;;;;;;;;5072027;28;20405;-69
2022/10/31 05:33:30;;;;;;;4.00;1.60;;;;;;;;;;5069935;28;20898;-69
2022/10/31 05:35:56;;;;;;;2.40;2.20;;;;;;;;;;5071214;28;20425;-69
2022/10/31 05:38:22;;;;;;;4.83;1.90;;;;;;;;;;5072705;28;20417;-69
2022/10/31 05:40:48;;;;;;;9.23;2.00;;;;;;;;;;5071450;28;20796;-69
2022/10/31 05:43:14;;;;;;;2.97;2.17;;;;;;;;;;5072355;28;20440;-70
2022/10/31 05:45:40;;;;;;;2.57;2.47;;;;;;;;;;5071154;28;20425;-70
2022/10/31 05:48:06;;;;;;;7.10;1.90;;;;;;;;;;5071719;28;20485;-69
2022/10/31 05:50:32;;;;;;;2.13;2.03;;;;;;;;;;5071314;28;20522;-69
2022/10/31 05:53:01;;;;;;;2.00;1.90;;;;;;;;;;5071420;28;20574;-70
2022/10/31 05:55:28;;;;;;;3.90;3.47;;;;;;;;;;5068359;28;20489;-69
2022/10/31 05:57:54;;;;;;;3.07;2.17;;;;;;;;;;5053246;28;20437;-69
2022/10/31 06:00:20;;;;;;;3.40;1.90;;;;;;;;;;5071501;28;20420;-69
2022/10/31 06:02:46;;;;;;;2.70;2.50;;;;;;;;;;5067492;28;20429;-70
2022/10/31 06:05:12;;;;;;;2.37;2.27;;;;;;;;;;5066543;28;20528;-69
2022/10/31 06:07:38;;;;;;;5.57;2.40;;;;;;;;;;5072333;28;20473;-70
2022/10/31 06:10:06;;;;;;;3.60;1.90;;;;;;;;;;5071020;28;20948;-70
2022/10/31 06:12:37;;;;;;;8.97;2.70;;;;;;;;;;5050835;28;20445;-71
2022/10/31 06:15:03;;;;;;;3.73;2.37;;;;;;;;;;5071157;28;20441;-71
2022/10/31 06:17:29;;;;;;;6.03;2.37;;;;;;;;;;5070244;28;20433;-72
2022/10/31 06:19:55;;;;;;;2.30;2.20;;;;;;;;;;5072143;28;20421;-71
2022/10/31 06:22:21;;;;;;;3.80;2.27;;;;;;;;;;5069251;28;20502;-71
2022/10/31 06:24:47;;;;;;;4.20;2.17;;;;;;;;;;5051372;28;20952;-69
2022/10/31 06:27:13;;;;;;;2.43;2.30;;;;;;;;;;5070718;28;20833;-69
2022/10/31 06:29:39;;;;;;;3.17;2.97;;;;;;;;;;5069681;28;20483;-71
2022/10/31 06:32:05;;;;;;;2.80;2.60;;;;;;;;;;5069081;28;20422;-71
2022/10/31 06:34:31;;;;;;;8.40;3.33;;;;;;;;;;5069604;28;20444;-71
2022/10/31 06:36:57;;;;;;;12.30;2.80;;;;;;;;;;5069180;28;20425;-70
2022/10/31 06:39:23;;;;;;;2.80;2.70;;;;;;;;;;5070982;28;20433;-69
2022/10/31 06:41:49;;;;;;;5.00;4.50;;;;;;;;;;5069009;28;20799;-69
2022/10/31 06:44:15;;;;;;;5.23;3.40;;;;;;;;;;5070354;28;20440;-70
2022/10/31 06:46:40;;;;;;;2.87;2.53;;;;;;;;;;5070075;28;20429;-69
2022/10/31 06:49:06;;;;;;;9.43;2.47;;;;;;;;;;5067034;28;20502;-71
2022/10/31 06:51:32;;;;;;;3.77;2.80;;;;;;;;;;5068566;28;20976;-72
2022/10/31 06:53:58;;;;;;;3.70;2.67;;;;;;;;;;5071283;28;20421;-71
2022/10/31 06:56:24;;;;;;;2.43;2.33;;;;;;;;;;5069373;28;20424;-70
2022/10/31 06:58:50;;;;;;;10.10;3.40;;;;;;;;;;5065948;28;20524;-71
2022/10/31 07:01:16;;;;;;;3.00;2.60;;;;;;;;;;5066976;28;20437;-68
2022/10/31 07:03:42;;;;;;;10.37;3.20;;;;;;;;;;5065918;28;20993;-69
2022/10/31 07:06:08;;;;;;;3.10;3.00;;;;;;;;;;5071473;28;20437;-71
2022/10/31 07:08:34;;;;;;;4.37;4.03;;;;;;;;;;5070962;28;21504;-71
2022/10/31 07:11:00;;;;;;;5.10;4.33;;;;;;;;;;5070641;28;20959;-69
2022/10/31 07:13:26;;;;;;;11.23;4.73;;;;;;;;;;5066864;28;20434;-71
2022/10/31 07:15:53;;;;;;;6.73;5.53;;;;;;;;;;5070968;28;20413;-69
2022/10/31 07:18:19;;;;;;;8.03;5.43;;;;;;;;;;5070769;28;20559;-71
2022/10/31 07:20:45;;;;;;;22.47;10.10;;;;;;;;;;5070689;28;20453;-71
2022/10/31 07:23:11;;;;;;;16.30;9.43;;;;;;;;;;5069432;28;20960;-73
2022/10/31 07:25:38;;;;;;;10.53;8.93;;;;;;;;;;5069392;28;20535;-72
2022/10/31 07:28:04;;;;;;;7.00;6.27;;;;;;;;;;5070427;28;20469;-71
2022/10/31 07:30:30;;;;;;;5.00;4.80;;;;;;;;;;5069592;28;20433;-71
2022/10/31 07:32:57;;;;;;;8.20;4.63;;;;;;;;;;5069508;28;20472;-72
2022/10/31 07:35:27;;;;;;;11.03;4.70;;;;;;;;;;5070763;28;20791;-71
2022/10/31 07:37:53;;;;;;;7.10;3.73;;;;;;;;;;5068703;28;20798;-71
2022/10/31 07:40:19;;;;;;;12.90;4.23;;;;;;;;;;5069831;28;20428;-70
2022/10/31 07:42:47;;;;;;;11.57;5.77;;;;;;;;;;5069659;28;20469;-69
2022/10/31 07:45:15;;;;;;;12.77;5.30;;;;;;;;;;5069462;28;20509;-71
2022/10/31 07:47:45;;;;;;;5.97;3.97;;;;;;;;;;5069689;28;20465;-69
2022/10/31 07:50:13;;;;;;;5.97;4.13;;;;;;;;;;5070453;28;20437;-69
2022/10/31 07:52:39;;;;;;;4.30;3.90;;;;;;;;;;5068259;28;20428;-70
2022/10/31 07:55:06;;;;;;;5.33;4.80;;;;;;;;;;5068894;28;20524;-71
2022/10/31 07:57:32;;;;;;;12.70;8.63;;;;;;;;;;5068323;28;20429;-70
2022/10/31 07:59:58;;;;;;;14.13;5.83;;;;;;;;;;5067230;28;20430;-69
2022/10/31 08:02:24;;;;;;;15.40;7.80;;;;;;;;;;5064648;28;20551;-71
2022/10/31 08:04:50;;;;;;;14.03;7.47;;;;;;;;;;5069784;28;20481;-68
2022/10/31 08:07:16;;;;;;;15.47;8.80;;;;;;;;;;5070192;28;20499;-68
2022/10/31 08:09:42;;;;;;;9.23;6.00;;;;;;;;;;5069791;28;20414;-69
2022/10/31 08:12:08;;;;;;;9.43;5.60;;;;;;;;;;5068272;28;20828;-69
2022/10/31 08:14:34;;;;;;;5.80;5.27;;;;;;;;;;5055851;28;20433;-70
2022/10/31 08:17:00;;;;;;;3.57;3.27;;;;;;;;;;5066939;28;20434;-70
2022/10/31 08:19:26;;;;;;;8.57;5.17;;;;;;;;;;5051035;28;20437;-68
2022/10/31 08:21:54;;;;;;;3.90;3.70;;;;;;;;;;5065526;28;20441;-69
2022/10/31 08:24:20;;;;;;;5.27;4.20;;;;;;;;;;5067558;28;20445;-71
2022/10/31 08:26:46;;;;;;;9.07;4.57;;;;;;;;;;5066327;28;20429;-69
2022/10/31 08:29:12;;;;;;;8.63;3.90;;;;;;;;;;5068329;28;21007;-71
2022/10/31 08:31:39;;;;;;;4.90;4.00;;;;;;;;;;5068239;28;20414;-69
2022/10/31 08:34:05;;;;;;;4.67;4.27;;;;;;;;;;5068448;28;20437;-70
2022/10/31 08:36:31;;;;;;;3.73;3.63;;;;;;;;;;5068156;28;20425;-72
2022/10/31 08:38:57;;;;;;;4.33;3.63;;;;;;;;;;5069089;28;20465;-69
2022/10/31 08:41:22;;;;;;;4.23;3.83;;;;;;;;;;5065254;28;20864;-71
2022/10/31 08:43:48;;;;;;;10.17;4.67;;;;;;;;;;5065633;28;20468;-69
2022/10/31 08:46:15;;;;;;;6.43;4.40;;;;;;;;;;5060952;28;20516;-70
2022/10/31 08:48:41;;;;;;;4.10;3.70;;;;;;;;;;5068571;28;20496;-69
2022/10/31 08:51:07;;;;;;;5.30;4.90;;;;;;;;;;5065521;28;20433;-71
2022/10/31 08:53:33;;;;;;;10.43;4.90;;;;;;;;;;5060012;28;20445;-70
2022/10/31 08:55:59;;;;;;;15.33;4.30;;;;;;;;;;5064957;28;20430;-69
2022/10/31 08:58:25;;;;;;;11.40;5.70;;;;;;;;;;5067276;28;20521;-70
2022/10/31 09:00:52;;;;;;;6.23;5.37;;;;;;;;;;5069178;28;20494;-69
2022/10/31 09:03:21;;;;;;;11.33;7.20;;;;;;;;;;5070903;28;20476;-69
2022/10/31 09:05:47;;;;;;;11.33;5.83;;;;;;;;;;5073316;28;20433;-69
2022/10/31 09:08:13;;;;;;;13.43;6.43;;;;;;;;;;5051331;28;20492;-68
2022/10/31 09:10:40;;;;;;;14.23;6.83;;;;;;;;;;5070451;28;20429;-69
2022/10/31 09:13:08;;;;;;;12.47;5.87;;;;;;;;;;5066974;28;20468;-69
2022/10/31 09:15:35;;;;;;;10.03;6.77;;;;;;;;;;5067571;28;20429;-69
2022/10/31 09:18:01;;;;;;;12.87;5.20;;;;;;;;;;5054153;28;20437;-69
2022/10/31 09:20:27;;;;;;;8.40;5.50;;;;;;;;;;5070258;28;20426;-68
2022/10/31 09:22:57;;;;;;;8.80;5.50;;;;;;;;;;5070054;28;20455;-69
2022/10/31 09:25:23;;;;;;;8.63;5.20;;;;;;;;;;5065478;28;20447;-69
2022/10/31 09:27:49;;;;;;;6.27;5.50;;;;;;;;;;5071983;28;20965;-68
2022/10/31 09:30:15;;;;;;;11.67;6.43;;;;;;;;;;5070002;28;20432;-69
2022/10/31 09:32:41;;;;;;;10.87;6.30;;;;;;;;;;5072203;28;20444;-69
2022/10/31 09:35:07;;;;;;;7.87;5.87;;;;;;;;;;5069912;28;20433;-69
2022/10/31 09:37:33;;;;;;;9.20;5.17;;;;;;;;;;5071799;28;20467;-69
2022/10/31 09:39:59;;;;;;;10.70;6.00;;;;;;;;;;5070889;28;20943;-69
2022/10/31 09:42:25;;;;;;;11.67;6.00;;;;;;;;;;5070484;28;20792;-69
2022/10/31 09:45:10;;;;;;;8.03;5.37;;;;;;;;;;5072012;28;20499;-74
2022/10/31 09:47:46;;;;;;;15.03;5.13;;;;;;;;;;5069195;28;20470;-70
2022/10/31 09:50:15;;;;;;;7.53;4.90;;;;;;;;;;5069149;28;20440;-66
2022/10/31 09:52:54;;;;;;;10.47;4.80;;;;;;;;;;5067396;28;20434;-68
2022/10/31 09:55:37;;;;;;;19.53;5.23;;;;;;;;;;5072028;28;20470;-69
2022/10/31 09:58:04;;;;;;;6.23;5.10;;;;;;;;;;5072388;28;20483;-69
2022/10/31 10:00:31;;;;;;;7.50;4.53;;;;;;;;;;5072111;28;20861;-69
2022/10/31 10:03:16;;;;;;;14.70;5.70;;;;;;;;;;5072177;28;20428;-69
2022/10/31 10:05:57;;;;;;;8.43;5.30;;;;;;;;;;5070571;28;20454;-69
2022/10/31 10:08:28;;;;;;;11.67;5.13;;;;;;;;;;5069251;28;20481;-69
2022/10/31 10:11:07;;;;;;;10.17;5.07;;;;;;;;;;5070763;28;20452;-69
2022/10/31 10:13:37;;;;;;;6.13;5.23;;;;;;;;;;5071996;28;20439;-69
2022/10/31 10:16:05;;;;;;;7.37;5.60;;;;;;;;;;5071402;28;20467;-69
2022/10/31 10:19:01;;;;;;;7.27;6.57;;;;;;;;;;5052008;28;20793;-69
2022/10/31 10:21:46;;;;;;;6.87;6.30;;;;;;;;;;5058589;28;20421;-69
2022/10/31 10:24:23;;;;;;;7.07;5.50;;;;;;;;;;5071283;28;20437;-68
2022/10/31 10:27:10;;;;;;;10.00;6.40;;;;;;;;;;5070799;28;20459;-68
2022/10/31 10:29:51;;;;;;;10.95;7.10;;;;;;;;;;5068635;28;20522;-70
2022/10/31 10:32:24;;;;;;;16.90;8.03;;;;;;;;;;5070221;28;20240;-68
2022/10/31 10:35:02;;;;;;;12.80;8.43;;;;;;;;;;5071401;28;20508;-69
2022/10/31 10:37:34;;;;;;;10.53;6.83;;;;;;;;;;5071372;28;20514;-69
2022/10/31 10:40:09;;;;;;;11.87;5.90;;;;;;;;;;5068501;28;20432;-69
2022/10/31 10:48:15;;;;;;;5.87;5.37;;;;;;;;;;5071581;28;20468;-70
2022/10/31 10:50:49;;;;;;;14.67;5.63;;;;;;;;;;5070145;28;20784;-69
2022/10/31 10:53:35;;;;;;;5.30;4.93;;;;;;;;;;5069349;28;20439;-70
2022/10/31 10:56:04;;;;;;;10.70;5.30;;;;;;;;;;5071019;28;20422;-70
2022/10/31 10:58:30;;;;;;;14.30;6.17;;;;;;;;;;5069288;28;20436;-70
2022/10/31 11:00:56;;;;;;;16.63;6.73;;;;;;;;;;5068432;28;20428;-69
2022/10/31 11:03:22;;;;;;;7.43;6.53;;;;;;;;;;5068181;28;20477;-69
2022/10/31 11:05:53;;;;;;;7.57;5.80;;;;;;;;;;5065852;28;20433;-69
2022/10/31 11:08:25;;;;;;;12.67;6.57;;;;;;;;;;5070693;28;20477;-69
2022/10/31 11:10:59;;;;;;;12.17;6.93;;;;;;;;;;5067931;28;20428;-69
2022/10/31 11:13:26;;;;;;;11.50;7.80;;;;;;;;;;5071144;28;20508;-70
2022/10/31 11:16:06;;;;;;;14.57;7.50;;;;;;;;;;5069766;28;20422;-69
2022/10/31 11:18:35;;;;;;;14.60;7.87;;;;;;;;;;5070976;28;20425;-69
2022/10/31 11:21:03;;;;;;;13.03;7.97;;;;;;;;;;5069302;28;20511;-69
2022/10/31 11:23:29;;;;;;;14.00;7.07;;;;;;;;;;5069602;28;20441;-70
2022/10/31 11:26:02;;;;;;;17.33;7.20;;;;;;;;;;5070685;28;20784;-70
2022/10/31 11:28:29;;;;;;;13.27;6.87;;;;;;;;;;5070557;28;20849;-70
2022/10/31 11:30:59;;;;;;;13.90;8.03;;;;;;;;;;5067352;28;20565;-70
2022/10/31 11:33:31;;;;;;;18.00;7.43;;;;;;;;;;5068440;28;20440;-69
2022/10/31 11:35:57;;;;;;;13.70;7.73;;;;;;;;;;5069359;28;20563;-69
2022/10/31 11:38:28;;;;;;;24.40;9.00;;;;;;;;;;5065082;28;20437;-69
2022/10/31 11:41:06;;;;;;;14.20;8.00;;;;;;;;;;5065799;28;20441;-69
2022/10/31 11:43:32;;;;;;;8.10;6.10;;;;;;;;;;5070328;28;20869;-69
2022/10/31 11:45:58;;;;;;;17.30;10.30;;;;;;;;;;5069235;28;21073;-69
2022/10/31 11:48:25;;;;;;;11.23;7.43;;;;;;;;;;5052283;28;20515;-69
2022/10/31 11:50:58;;;;;;;13.60;7.60;;;;;;;;;;5069111;28;20424;-69
2022/10/31 11:53:26;;;;;;;16.83;8.47;;;;;;;;;;5063787;28;20429;-69
2022/10/31 11:56:05;;;;;;;11.60;7.40;;;;;;;;;;5067722;28;20748;-69
2022/10/31 11:58:31;;;;;;;15.77;7.10;;;;;;;;;;5069793;28;20456;-69
2022/10/31 12:00:58;;;;;;;7.80;6.73;;;;;;;;;;5066179;28;21029;-69
2022/10/31 12:03:24;;;;;;;12.63;7.50;;;;;;;;;;5068751;28;21053;-70
2022/10/31 12:05:52;;;;;;;7.90;7.10;;;;;;;;;;5070303;28;20417;-70
2022/10/31 12:08:18;;;;;;;11.90;7.13;;;;;;;;;;5069964;28;20480;-69
2022/10/31 12:10:54;;;;;;;13.33;6.53;;;;;;;;;;5067724;28;20449;-70
2022/10/31 12:13:27;;;;;;;3.70;3.43;;;;;;;;;;5069743;28;20487;-68
2022/10/31 12:16:00;;;;;;;14.97;7.47;;;;;;;;;;5070003;28;20757;-69
2022/10/31 12:18:43;;;;;;;11.50;6.50;;;;;;;;;;5047785;28;20441;-68
2022/10/31 12:21:15;;;;;;;6.93;6.33;;;;;;;;;;5065011;28;20929;-70
2022/10/31 12:23:47;;;;;;;6.10;5.63;;;;;;;;;;5065427;28;20437;-70
2022/10/31 12:26:22;;;;;;;12.80;6.67;;;;;;;;;;5066167;28;20437;-71
2022/10/31 12:29:04;;;;;;;10.17;6.60;;;;;;;;;;5048323;28;20488;-70
2022/10/31 12:31:51;;;;;;;7.97;5.90;;;;;;;;;;5066560;28;20465;-70
2022/10/31 12:34:17;;;;;;;7.30;6.07;;;;;;;;;;5067139;28;20472;-70
2022/10/31 12:36:58;;;;;;;23.23;7.50;;;;;;;;;;5065861;28;20477;-69
2022/10/31 12:39:28;;;;;;;17.30;6.10;;;;;;;;;;5066604;28;20524;-69
2022/10/31 12:42:13;;;;;;;5.23;4.20;;;;;;;;;;5065710;28;20526;-69
2022/10/31 12:44:49;;;;;;;16.97;10.77;;;;;;;;;;5068522;28;20459;-69
2022/10/31 12:47:15;;;;;;;12.83;7.17;;;;;;;;;;5067665;28;20560;-68
2022/10/31 12:49:50;;;;;;;20.70;12.30;;;;;;;;;;5067583;28;20536;-69
2022/10/31 12:52:31;;;;;;;15.43;8.77;;;;;;;;;;5066682;28;20468;-68
2022/10/31 12:55:15;;;;;;;9.17;6.20;;;;;;;;;;5064691;28;20439;-70
2022/10/31 12:57:41;;;;;;;14.47;5.90;;;;;;;;;;5067234;28;20482;-69
2022/10/31 13:00:15;;;;;;;6.67;4.93;;;;;;;;;;5069400;28;20426;-70
2022/10/31 13:02:50;;;;;;;12.87;5.60;;;;;;;;;;5068219;28;20416;-69
2022/10/31 13:05:22;;;;;;;5.23;4.67;;;;;;;;;;5067639;28;20497;-70
2022/10/31 13:07:55;;;;;;;5.93;4.47;;;;;;;;;;5049721;28;20465;-70
2022/10/31 13:10:27;;;;;;;5.93;4.13;;;;;;;;;;5050758;28;20438;-69
2022/10/31 13:12:55;;;;;;;39.23;16.60;;;;;;;;;;5069341;28;20701;-70
2022/10/31 13:15:26;;;;;;;5.67;4.50;;;;;;;;;;5067709;28;20483;-71
2022/10/31 13:18:01;;;;;;;4.87;4.43;;;;;;;;;;5069594;28;20814;-69
2022/10/31 13:20:33;;;;;;;7.17;4.70;;;;;;;;;;5069237;28;20443;-69
2022/10/31 13:23:17;;;;;;;4.90;4.00;;;;;;;;;;5067299;28;20434;-69
2022/10/31 13:25:45;;;;;;;5.40;4.70;;;;;;;;;;5050998;28;20429;-69
2022/10/31 13:28:27;;;;;;;10.10;5.37;;;;;;;;;;5067358;28;20481;-69
2022/10/31 13:30:54;;;;;;;8.27;4.50;;;;;;;;;;5049013;28;20859;-71
2022/10/31 13:33:29;;;;;;;10.83;5.47;;;;;;;;;;5068401;28;20944;-69
2022/10/31 13:36:13;;;;;;;2.43;2.33;;;;;;;;;;5066845;28;20444;-70
2022/10/31 13:39:00;;;;;;;2.30;2.30;;;;;;;;;;5068855;28;20410;-69
2022/10/31 13:41:36;;;;;;;8.63;4.73;;;;;;;;;;5068651;28;20425;-69
2022/10/31 13:44:08;;;;;;;4.37;4.00;;;;;;;;;;5065283;28;20464;-69
2022/10/31 13:46:39;;;;;;;7.97;4.80;;;;;;;;;;5070709;28;20471;-70
2022/10/31 13:49:21;;;;;;;2.87;2.80;;;;;;;;;;5072609;28;20468;-70
2022/10/31 13:51:48;;;;;;;10.17;4.47;;;;;;;;;;5072146;28;20783;-70
2022/10/31 13:54:32;;;;;;;8.83;4.87;;;;;;;;;;5072282;28;20465;-69
2022/10/31 13:56:58;;;;;;;8.00;5.10;;;;;;;;;;5071676;28;20432;-70
2022/10/31 13:59:25;;;;;;;3.53;3.23;;;;;;;;;;5052851;28;20487;-70
2022/10/31 14:02:01;;;;;;;9.57;4.80;;;;;;;;;;5072008;28;20458;-69
2022/10/31 14:04:30;;;;;;;37.30;4.73;;;;;;;;;;5071993;28;20472;-68
2022/10/31 14:07:02;;;;;;;5.60;4.60;;;;;;;;;;5071708;28;20801;-69
2022/10/31 14:09:39;;;;;;;8.83;5.00;;;;;;;;;;5071844;28;20429;-69
2022/10/31 14:12:26;;;;;;;5.33;4.20;;;;;;;;;;5071823;28;20827;-70
2022/10/31 14:14:54;;;;;;;14.43;5.00;;;;;;;;;;5072297;28;20414;-69
2022/10/31 14:17:22;;;;;;;4.87;4.40;;;;;;;;;;5054118;28;20429;-68
2022/10/31 14:20:03;;;;;;;7.53;4.50;;;;;;;;;;5071957;28;20988;-69
2022/10/31 14:22:30;;;;;;;4.40;4.00;;;;;;;;;;5071032;28;20966;-70
2022/10/31 14:24:56;;;;;;;5.47;4.97;;;;;;;;;;5071440;28;20456;-68
2022/10/31 14:27:28;;;;;;;8.33;5.20;;;;;;;;;;5071648;28;20981;-68
2022/10/31 14:29:54;;;;;;;15.83;6.00;;;;;;;;;;5071203;28;20508;-70
2022/10/31 14:32:24;;;;;;;14.20;6.30;;;;;;;;;;5071111;28;20442;-70
2022/10/31 14:34:50;;;;;;;9.03;5.50;;;;;;;;;;5070236;28;20437;-70
2022/10/31 14:37:16;;;;;;;11.63;5.20;;;;;;;;;;5053009;28;21006;-69
2022/10/31 14:39:56;;;;;;;14.53;5.40;;;;;;;;;;5071627;28;20992;-70
2022/10/31 14:42:27;;;;;;;6.43;5.83;;;;;;;;;;5071233;28;20413;-69
2022/10/31 14:45:06;;;;;;;9.70;4.50;;;;;;;;;;5071333;28;20986;-69
2022/10/31 14:47:50;;;;;;;6.77;5.53;;;;;;;;;;5069349;28;22059;-70
2022/10/31 14:50:52;;;;;;;11.43;4.77;;;;;;;;;;5071115;28;20429;-69
2022/10/31 14:53:21;;;;;;;8.23;4.90;;;;;;;;;;5009229;28;20438;-69
2022/10/31 14:55:52;;;;;;;14.70;5.20;;;;;;;;;;5058727;28;20421;-69